sensor_id;sensor_type;location;lat;lon;timestamp;P1;durP1;ratioP1;P2;durP2;ratioP2
3891;SDS011;1961;48.194;16.370;2023-07-16T00:00:36;44.57;;;8.67;;
3891;SDS011;1961;48.194;16.370;2023-07-16T00:03:02;46.57;;;9.43;;
3891;SDS011;1961;48.194;16.370;2023-07-16T00:05:28;46.57;;;9.30;;
3891;SDS011;1961;48.194;16.370;2023-07-16T00:07:55;48.17;;;9.70;;
3891;SDS011;1961;48.194;16.370;2023-07-16T00:10:22;45.10;;;8.83;;
3891;SDS011;1961;48.194;16.370;2023-07-16T00:12:48;45.73;;;9.20;;
3891;SDS011;1961;48.194;16.370;2023-07-16T00:15:14;45.87;;;9.70;;
3891;SDS011;1961;48.194;16.370;2023-07-16T00:17:40;46.40;;;9.37;;
3891;SDS011;1961;48.194;16.370;2023-07-16T00:20:06;47.10;;;9.57;;
3891;SDS011;1961;48.194;16.370;2023-07-16T00:22:33;45.80;;;8.80;;
3891;SDS011;1961;48.194;16.370;2023-07-16T00:25:00;47.73;;;9.57;;
3891;SDS011;1961;48.194;16.370;2023-07-16T00:27:26;47.00;;;9.43;;
3891;SDS011;1961;48.194;16.370;2023-07-16T00:29:52;45.40;;;9.67;;
3891;SDS011;1961;48.194;16.370;2023-07-16T00:32:18;47.77;;;9.47;;
3891;SDS011;1961;48.194;16.370;2023-07-16T00:34:44;46.40;;;9.60;;
3891;SDS011;1961;48.194;16.370;2023-07-16T00:37:10;46.33;;;9.70;;
3891;SDS011;1961;48.194;16.370;2023-07-16T00:39:37;45.43;;;9.03;;
3891;SDS011;1961;48.194;16.370;2023-07-16T00:42:03;46.70;;;10.13;;
3891;SDS011;1961;48.194;16.370;2023-07-16T00:44:29;46.80;;;8.97;;
3891;SDS011;1961;48.194;16.370;2023-07-16T00:46:55;46.20;;;9.60;;
3891;SDS011;1961;48.194;16.370;2023-07-16T00:49:23;46.90;;;9.37;;
3891;SDS011;1961;48.194;16.370;2023-07-16T00:51:50;46.07;;;9.77;;
3891;SDS011;1961;48.194;16.370;2023-07-16T00:54:17;45.47;;;9.63;;
3891;SDS011;1961;48.194;16.370;2023-07-16T00:56:43;45.70;;;9.27;;
3891;SDS011;1961;48.194;16.370;2023-07-16T00:59:09;47.83;;;9.10;;
3891;SDS011;1961;48.194;16.370;2023-07-16T01:01:35;45.97;;;9.70;;
3891;SDS011;1961;48.194;16.370;2023-07-16T01:04:02;54.10;;;10.07;;
3891;SDS011;1961;48.194;16.370;2023-07-16T01:06:31;57.43;;;12.50;;
3891;SDS011;1961;48.194;16.370;2023-07-16T01:09:03;46.90;;;10.30;;
3891;SDS011;1961;48.194;16.370;2023-07-16T01:11:29;44.87;;;9.57;;
3891;SDS011;1961;48.194;16.370;2023-07-16T01:13:56;46.60;;;9.87;;
3891;SDS011;1961;48.194;16.370;2023-07-16T01:16:23;46.20;;;9.90;;
3891;SDS011;1961;48.194;16.370;2023-07-16T01:18:50;48.90;;;9.90;;
3891;SDS011;1961;48.194;16.370;2023-07-16T01:21:21;46.77;;;9.20;;
3891;SDS011;1961;48.194;16.370;2023-07-16T01:24:02;47.77;;;9.47;;
3891;SDS011;1961;48.194;16.370;2023-07-16T01:31:35;47.97;;;10.73;;
3891;SDS011;1961;48.194;16.370;2023-07-16T01:34:02;46.33;;;9.27;;
3891;SDS011;1961;48.194;16.370;2023-07-16T01:36:31;44.80;;;9.03;;
3891;SDS011;1961;48.194;16.370;2023-07-16T01:38:58;46.97;;;9.80;;
3891;SDS011;1961;48.194;16.370;2023-07-16T01:41:24;45.50;;;9.50;;
3891;SDS011;1961;48.194;16.370;2023-07-16T01:43:50;45.50;;;9.73;;
3891;SDS011;1961;48.194;16.370;2023-07-16T01:46:17;44.93;;;9.10;;
3891;SDS011;1961;48.194;16.370;2023-07-16T01:48:43;47.03;;;10.20;;
3891;SDS011;1961;48.194;16.370;2023-07-16T01:51:09;47.67;;;10.17;;
3891;SDS011;1961;48.194;16.370;2023-07-16T01:53:39;44.90;;;9.77;;
3891;SDS011;1961;48.194;16.370;2023-07-16T01:56:05;45.47;;;9.40;;
3891;SDS011;1961;48.194;16.370;2023-07-16T01:58:31;46.20;;;9.77;;
3891;SDS011;1961;48.194;16.370;2023-07-16T02:00:57;45.77;;;10.10;;
3891;SDS011;1961;48.194;16.370;2023-07-16T02:03:23;45.47;;;9.80;;
3891;SDS011;1961;48.194;16.370;2023-07-16T02:05:50;47.83;;;9.43;;
3891;SDS011;1961;48.194;16.370;2023-07-16T02:08:16;47.30;;;9.43;;
3891;SDS011;1961;48.194;16.370;2023-07-16T02:10:48;46.97;;;9.57;;
3891;SDS011;1961;48.194;16.370;2023-07-16T02:13:14;51.57;;;9.70;;
3891;SDS011;1961;48.194;16.370;2023-07-16T02:15:40;45.93;;;9.40;;
3891;SDS011;1961;48.194;16.370;2023-07-16T02:18:07;46.20;;;9.03;;
3891;SDS011;1961;48.194;16.370;2023-07-16T02:20:33;47.20;;;9.60;;
3891;SDS011;1961;48.194;16.370;2023-07-16T02:22:59;48.90;;;9.40;;
3891;SDS011;1961;48.194;16.370;2023-07-16T02:25:25;44.90;;;9.20;;
3891;SDS011;1961;48.194;16.370;2023-07-16T02:27:51;44.50;;;9.47;;
3891;SDS011;1961;48.194;16.370;2023-07-16T02:30:17;47.30;;;9.83;;
3891;SDS011;1961;48.194;16.370;2023-07-16T02:32:44;44.70;;;9.20;;
3891;SDS011;1961;48.194;16.370;2023-07-16T02:35:10;46.67;;;9.17;;
3891;SDS011;1961;48.194;16.370;2023-07-16T02:37:36;44.73;;;9.50;;
3891;SDS011;1961;48.194;16.370;2023-07-16T02:40:03;45.50;;;9.70;;
3891;SDS011;1961;48.194;16.370;2023-07-16T02:42:29;48.77;;;9.57;;
3891;SDS011;1961;48.194;16.370;2023-07-16T02:44:55;46.03;;;9.43;;
3891;SDS011;1961;48.194;16.370;2023-07-16T02:47:21;50.27;;;9.83;;
3891;SDS011;1961;48.194;16.370;2023-07-16T02:49:50;47.97;;;10.00;;
3891;SDS011;1961;48.194;16.370;2023-07-16T02:52:17;45.40;;;9.33;;
3891;SDS011;1961;48.194;16.370;2023-07-16T02:54:43;48.13;;;9.77;;
3891;SDS011;1961;48.194;16.370;2023-07-16T02:57:09;45.30;;;9.70;;
3891;SDS011;1961;48.194;16.370;2023-07-16T02:59:35;47.00;;;9.93;;
3891;SDS011;1961;48.194;16.370;2023-07-16T03:02:01;45.70;;;9.77;;
3891;SDS011;1961;48.194;16.370;2023-07-16T03:04:27;47.70;;;10.23;;
3891;SDS011;1961;48.194;16.370;2023-07-16T03:06:54;45.07;;;9.63;;
3891;SDS011;1961;48.194;16.370;2023-07-16T03:09:20;46.10;;;10.20;;
3891;SDS011;1961;48.194;16.370;2023-07-16T03:11:46;46.10;;;9.70;;
3891;SDS011;1961;48.194;16.370;2023-07-16T03:14:12;48.37;;;11.43;;
3891;SDS011;1961;48.194;16.370;2023-07-16T03:16:38;47.70;;;10.90;;
3891;SDS011;1961;48.194;16.370;2023-07-16T03:19:04;45.27;;;10.17;;
3891;SDS011;1961;48.194;16.370;2023-07-16T03:21:31;47.33;;;10.47;;
3891;SDS011;1961;48.194;16.370;2023-07-16T03:23:57;48.20;;;11.40;;
3891;SDS011;1961;48.194;16.370;2023-07-16T03:26:23;48.90;;;12.10;;
3891;SDS011;1961;48.194;16.370;2023-07-16T03:28:50;46.90;;;11.40;;
3891;SDS011;1961;48.194;16.370;2023-07-16T03:31:16;46.63;;;11.47;;
3891;SDS011;1961;48.194;16.370;2023-07-16T03:33:42;45.50;;;10.77;;
3891;SDS011;1961;48.194;16.370;2023-07-16T03:36:08;48.47;;;11.83;;
3891;SDS011;1961;48.194;16.370;2023-07-16T03:38:34;49.07;;;12.80;;
3891;SDS011;1961;48.194;16.370;2023-07-16T03:41:00;49.37;;;11.87;;
3891;SDS011;1961;48.194;16.370;2023-07-16T03:43:27;47.93;;;12.50;;
3891;SDS011;1961;48.194;16.370;2023-07-16T03:45:53;46.57;;;11.80;;
3891;SDS011;1961;48.194;16.370;2023-07-16T03:48:19;48.83;;;12.33;;
3891;SDS011;1961;48.194;16.370;2023-07-16T03:50:46;46.47;;;12.83;;
3891;SDS011;1961;48.194;16.370;2023-07-16T03:53:12;47.63;;;13.33;;
3891;SDS011;1961;48.194;16.370;2023-07-16T03:55:38;47.97;;;13.40;;
3891;SDS011;1961;48.194;16.370;2023-07-16T03:58:04;47.70;;;13.73;;
3891;SDS011;1961;48.194;16.370;2023-07-16T04:00:31;49.50;;;14.03;;
3891;SDS011;1961;48.194;16.370;2023-07-16T04:02:58;48.40;;;13.90;;
3891;SDS011;1961;48.194;16.370;2023-07-16T04:05:24;48.97;;;13.30;;
3891;SDS011;1961;48.194;16.370;2023-07-16T04:07:50;48.97;;;14.37;;
3891;SDS011;1961;48.194;16.370;2023-07-16T04:10:17;49.43;;;14.67;;
3891;SDS011;1961;48.194;16.370;2023-07-16T04:12:43;48.57;;;14.13;;
3891;SDS011;1961;48.194;16.370;2023-07-16T04:15:09;51.20;;;14.50;;
3891;SDS011;1961;48.194;16.370;2023-07-16T04:17:36;49.20;;;15.07;;
3891;SDS011;1961;48.194;16.370;2023-07-16T04:20:03;50.63;;;14.10;;
3891;SDS011;1961;48.194;16.370;2023-07-16T04:22:30;49.43;;;15.17;;
3891;SDS011;1961;48.194;16.370;2023-07-16T04:24:56;50.77;;;14.53;;
3891;SDS011;1961;48.194;16.370;2023-07-16T04:27:23;52.70;;;15.33;;
3891;SDS011;1961;48.194;16.370;2023-07-16T04:29:50;59.60;;;17.00;;
3891;SDS011;1961;48.194;16.370;2023-07-16T04:32:16;50.07;;;14.13;;
3891;SDS011;1961;48.194;16.370;2023-07-16T04:34:42;53.27;;;14.87;;
3891;SDS011;1961;48.194;16.370;2023-07-16T04:37:08;50.13;;;14.40;;
3891;SDS011;1961;48.194;16.370;2023-07-16T04:39:34;51.90;;;14.73;;
3891;SDS011;1961;48.194;16.370;2023-07-16T04:42:00;49.30;;;15.13;;
3891;SDS011;1961;48.194;16.370;2023-07-16T04:44:27;49.10;;;14.50;;
3891;SDS011;1961;48.194;16.370;2023-07-16T04:46:53;49.23;;;14.00;;
3891;SDS011;1961;48.194;16.370;2023-07-16T04:49:19;48.70;;;13.87;;
3891;SDS011;1961;48.194;16.370;2023-07-16T04:51:45;50.93;;;13.73;;
3891;SDS011;1961;48.194;16.370;2023-07-16T04:54:12;47.90;;;13.40;;
3891;SDS011;1961;48.194;16.370;2023-07-16T04:56:39;47.17;;;12.43;;
3891;SDS011;1961;48.194;16.370;2023-07-16T04:59:06;49.77;;;13.00;;
3891;SDS011;1961;48.194;16.370;2023-07-16T05:01:32;49.30;;;13.23;;
3891;SDS011;1961;48.194;16.370;2023-07-16T05:03:58;49.20;;;13.00;;
3891;SDS011;1961;48.194;16.370;2023-07-16T05:06:24;50.40;;;13.60;;
3891;SDS011;1961;48.194;16.370;2023-07-16T05:08:51;48.00;;;12.60;;
3891;SDS011;1961;48.194;16.370;2023-07-16T05:11:17;50.13;;;12.60;;
3891;SDS011;1961;48.194;16.370;2023-07-16T05:13:43;51.50;;;12.60;;
3891;SDS011;1961;48.194;16.370;2023-07-16T05:16:09;49.03;;;11.97;;
3891;SDS011;1961;48.194;16.370;2023-07-16T05:18:35;47.67;;;11.37;;
3891;SDS011;1961;48.194;16.370;2023-07-16T05:21:01;47.20;;;10.53;;
3891;SDS011;1961;48.194;16.370;2023-07-16T05:23:28;48.43;;;10.70;;
3891;SDS011;1961;48.194;16.370;2023-07-16T05:25:54;47.80;;;11.10;;
3891;SDS011;1961;48.194;16.370;2023-07-16T05:28:20;48.00;;;11.80;;
3891;SDS011;1961;48.194;16.370;2023-07-16T05:30:46;47.03;;;10.53;;
3891;SDS011;1961;48.194;16.370;2023-07-16T05:33:13;46.43;;;10.80;;
3891;SDS011;1961;48.194;16.370;2023-07-16T05:35:39;48.03;;;11.43;;
3891;SDS011;1961;48.194;16.370;2023-07-16T05:38:06;46.67;;;11.73;;
3891;SDS011;1961;48.194;16.370;2023-07-16T05:40:32;48.70;;;10.30;;
3891;SDS011;1961;48.194;16.370;2023-07-16T05:42:59;46.90;;;11.57;;
3891;SDS011;1961;48.194;16.370;2023-07-16T05:45:25;47.30;;;10.83;;
3891;SDS011;1961;48.194;16.370;2023-07-16T05:47:51;46.50;;;11.00;;
3891;SDS011;1961;48.194;16.370;2023-07-16T05:50:17;46.17;;;9.93;;
3891;SDS011;1961;48.194;16.370;2023-07-16T05:52:43;46.10;;;10.57;;
3891;SDS011;1961;48.194;16.370;2023-07-16T05:55:10;45.90;;;10.47;;
3891;SDS011;1961;48.194;16.370;2023-07-16T05:57:36;46.40;;;10.40;;
3891;SDS011;1961;48.194;16.370;2023-07-16T06:00:02;45.93;;;10.27;;
3891;SDS011;1961;48.194;16.370;2023-07-16T06:02:30;45.20;;;10.30;;
3891;SDS011;1961;48.194;16.370;2023-07-16T06:04:56;45.10;;;10.50;;
3891;SDS011;1961;48.194;16.370;2023-07-16T06:07:22;48.40;;;9.83;;
3891;SDS011;1961;48.194;16.370;2023-07-16T06:09:48;48.23;;;11.00;;
3891;SDS011;1961;48.194;16.370;2023-07-16T06:12:14;47.47;;;10.00;;
3891;SDS011;1961;48.194;16.370;2023-07-16T06:14:40;47.20;;;10.90;;
3891;SDS011;1961;48.194;16.370;2023-07-16T06:17:07;46.60;;;10.23;;
3891;SDS011;1961;48.194;16.370;2023-07-16T06:19:34;46.27;;;10.10;;
3891;SDS011;1961;48.194;16.370;2023-07-16T06:22:00;45.10;;;9.60;;
3891;SDS011;1961;48.194;16.370;2023-07-16T06:24:26;46.00;;;10.90;;
3891;SDS011;1961;48.194;16.370;2023-07-16T06:26:52;46.10;;;10.63;;
3891;SDS011;1961;48.194;16.370;2023-07-16T06:29:18;45.23;;;10.40;;
3891;SDS011;1961;48.194;16.370;2023-07-16T06:31:53;47.40;;;10.63;;
3891;SDS011;1961;48.194;16.370;2023-07-16T06:34:21;46.67;;;11.13;;
3891;SDS011;1961;48.194;16.370;2023-07-16T06:36:47;47.43;;;10.40;;
3891;SDS011;1961;48.194;16.370;2023-07-16T06:39:13;45.40;;;11.27;;
3891;SDS011;1961;48.194;16.370;2023-07-16T06:41:39;47.87;;;11.20;;
3891;SDS011;1961;48.194;16.370;2023-07-16T06:44:05;46.07;;;10.70;;
3891;SDS011;1961;48.194;16.370;2023-07-16T06:46:31;49.90;;;10.73;;
3891;SDS011;1961;48.194;16.370;2023-07-16T06:48:58;47.50;;;11.33;;
3891;SDS011;1961;48.194;16.370;2023-07-16T06:51:24;49.17;;;10.50;;
3891;SDS011;1961;48.194;16.370;2023-07-16T06:53:51;45.93;;;10.90;;
3891;SDS011;1961;48.194;16.370;2023-07-16T06:56:17;46.80;;;10.87;;
3891;SDS011;1961;48.194;16.370;2023-07-16T06:58:43;45.03;;;10.80;;
3891;SDS011;1961;48.194;16.370;2023-07-16T07:01:10;47.20;;;10.80;;
3891;SDS011;1961;48.194;16.370;2023-07-16T07:03:36;45.70;;;10.30;;
3891;SDS011;1961;48.194;16.370;2023-07-16T07:06:02;46.90;;;11.10;;
3891;SDS011;1961;48.194;16.370;2023-07-16T07:08:29;45.90;;;10.50;;
3891;SDS011;1961;48.194;16.370;2023-07-16T07:10:55;51.20;;;10.47;;
3891;SDS011;1961;48.194;16.370;2023-07-16T07:13:21;45.37;;;9.80;;
3891;SDS011;1961;48.194;16.370;2023-07-16T07:15:48;46.67;;;9.90;;
3891;SDS011;1961;48.194;16.370;2023-07-16T07:18:14;46.60;;;9.80;;
3891;SDS011;1961;48.194;16.370;2023-07-16T07:20:40;45.30;;;9.43;;
3891;SDS011;1961;48.194;16.370;2023-07-16T07:23:07;44.57;;;8.83;;
3891;SDS011;1961;48.194;16.370;2023-07-16T07:25:33;44.17;;;9.33;;
3891;SDS011;1961;48.194;16.370;2023-07-16T07:27:59;47.17;;;9.03;;
3891;SDS011;1961;48.194;16.370;2023-07-16T07:30:26;45.63;;;8.77;;
3891;SDS011;1961;48.194;16.370;2023-07-16T07:32:52;43.77;;;8.40;;
3891;SDS011;1961;48.194;16.370;2023-07-16T07:35:18;47.00;;;9.17;;
3891;SDS011;1961;48.194;16.370;2023-07-16T07:37:45;45.00;;;9.57;;
3891;SDS011;1961;48.194;16.370;2023-07-16T07:40:11;44.63;;;8.17;;
3891;SDS011;1961;48.194;16.370;2023-07-16T07:42:37;45.03;;;8.10;;
3891;SDS011;1961;48.194;16.370;2023-07-16T07:45:04;45.73;;;7.97;;
3891;SDS011;1961;48.194;16.370;2023-07-16T07:47:30;44.90;;;7.80;;
3891;SDS011;1961;48.194;16.370;2023-07-16T07:49:57;44.27;;;7.30;;
3891;SDS011;1961;48.194;16.370;2023-07-16T07:52:23;45.10;;;7.20;;
3891;SDS011;1961;48.194;16.370;2023-07-16T07:54:49;42.17;;;6.50;;
3891;SDS011;1961;48.194;16.370;2023-07-16T07:57:15;43.73;;;7.23;;
3891;SDS011;1961;48.194;16.370;2023-07-16T07:59:41;42.10;;;7.13;;
3891;SDS011;1961;48.194;16.370;2023-07-16T08:02:08;42.33;;;6.87;;
3891;SDS011;1961;48.194;16.370;2023-07-16T08:04:34;43.47;;;6.70;;
3891;SDS011;1961;48.194;16.370;2023-07-16T08:07:00;41.70;;;6.37;;
3891;SDS011;1961;48.194;16.370;2023-07-16T08:09:26;42.30;;;6.73;;
3891;SDS011;1961;48.194;16.370;2023-07-16T08:11:53;42.90;;;6.60;;
3891;SDS011;1961;48.194;16.370;2023-07-16T08:14:19;42.57;;;7.10;;
3891;SDS011;1961;48.194;16.370;2023-07-16T08:16:45;42.30;;;6.50;;
3891;SDS011;1961;48.194;16.370;2023-07-16T08:19:11;45.53;;;7.60;;
3891;SDS011;1961;48.194;16.370;2023-07-16T08:21:38;43.60;;;6.67;;
3891;SDS011;1961;48.194;16.370;2023-07-16T08:24:07;42.50;;;6.50;;
3891;SDS011;1961;48.194;16.370;2023-07-16T08:26:33;43.60;;;7.00;;
3891;SDS011;1961;48.194;16.370;2023-07-16T08:28:59;43.23;;;7.70;;
3891;SDS011;1961;48.194;16.370;2023-07-16T08:31:26;43.47;;;7.67;;
3891;SDS011;1961;48.194;16.370;2023-07-16T08:33:53;42.43;;;7.10;;
3891;SDS011;1961;48.194;16.370;2023-07-16T08:36:19;44.70;;;7.63;;
3891;SDS011;1961;48.194;16.370;2023-07-16T08:38:46;42.50;;;7.17;;
3891;SDS011;1961;48.194;16.370;2023-07-16T08:41:12;43.67;;;7.10;;
3891;SDS011;1961;48.194;16.370;2023-07-16T08:43:38;44.97;;;8.60;;
3891;SDS011;1961;48.194;16.370;2023-07-16T08:46:05;43.70;;;7.63;;
3891;SDS011;1961;48.194;16.370;2023-07-16T08:48:31;44.80;;;7.10;;
3891;SDS011;1961;48.194;16.370;2023-07-16T08:50:57;43.73;;;6.60;;
3891;SDS011;1961;48.194;16.370;2023-07-16T08:53:25;43.37;;;6.40;;
3891;SDS011;1961;48.194;16.370;2023-07-16T08:55:51;42.90;;;7.60;;
3891;SDS011;1961;48.194;16.370;2023-07-16T08:58:17;42.50;;;6.33;;
3891;SDS011;1961;48.194;16.370;2023-07-16T09:00:45;42.47;;;6.47;;
3891;SDS011;1961;48.194;16.370;2023-07-16T09:03:12;43.43;;;6.77;;
3891;SDS011;1961;48.194;16.370;2023-07-16T09:05:39;42.90;;;7.07;;
3891;SDS011;1961;48.194;16.370;2023-07-16T09:08:06;42.60;;;6.60;;
3891;SDS011;1961;48.194;16.370;2023-07-16T09:10:32;44.30;;;6.77;;
3891;SDS011;1961;48.194;16.370;2023-07-16T09:12:59;43.50;;;7.00;;
3891;SDS011;1961;48.194;16.370;2023-07-16T09:15:26;42.53;;;6.77;;
3891;SDS011;1961;48.194;16.370;2023-07-16T09:17:54;41.93;;;6.87;;
3891;SDS011;1961;48.194;16.370;2023-07-16T09:20:21;41.53;;;6.17;;
3891;SDS011;1961;48.194;16.370;2023-07-16T09:22:53;41.40;;;6.07;;
3891;SDS011;1961;48.194;16.370;2023-07-16T09:25:29;42.97;;;6.60;;
3891;SDS011;1961;48.194;16.370;2023-07-16T09:27:57;42.17;;;6.20;;
3891;SDS011;1961;48.194;16.370;2023-07-16T09:30:23;42.70;;;6.60;;
3891;SDS011;1961;48.194;16.370;2023-07-16T09:32:49;42.00;;;7.07;;
3891;SDS011;1961;48.194;16.370;2023-07-16T09:35:16;43.00;;;6.77;;
3891;SDS011;1961;48.194;16.370;2023-07-16T09:37:43;42.33;;;6.80;;
3891;SDS011;1961;48.194;16.370;2023-07-16T09:40:10;42.10;;;6.57;;
3891;SDS011;1961;48.194;16.370;2023-07-16T09:42:37;42.00;;;6.47;;
3891;SDS011;1961;48.194;16.370;2023-07-16T09:45:05;42.57;;;6.60;;
3891;SDS011;1961;48.194;16.370;2023-07-16T09:47:32;43.80;;;6.97;;
3891;SDS011;1961;48.194;16.370;2023-07-16T09:49:58;43.50;;;6.17;;
3891;SDS011;1961;48.194;16.370;2023-07-16T09:52:24;43.63;;;6.57;;
3891;SDS011;1961;48.194;16.370;2023-07-16T09:54:52;44.30;;;6.40;;
3891;SDS011;1961;48.194;16.370;2023-07-16T09:57:22;42.30;;;6.97;;
3891;SDS011;1961;48.194;16.370;2023-07-16T09:59:49;42.60;;;6.50;;
3891;SDS011;1961;48.194;16.370;2023-07-16T10:02:16;43.30;;;7.07;;
3891;SDS011;1961;48.194;16.370;2023-07-16T10:04:43;43.70;;;6.80;;
3891;SDS011;1961;48.194;16.370;2023-07-16T10:07:22;43.00;;;6.90;;
3891;SDS011;1961;48.194;16.370;2023-07-16T10:09:55;42.70;;;6.90;;
3891;SDS011;1961;48.194;16.370;2023-07-16T10:12:23;42.50;;;7.00;;
3891;SDS011;1961;48.194;16.370;2023-07-16T10:14:52;41.77;;;6.50;;
3891;SDS011;1961;48.194;16.370;2023-07-16T10:17:20;43.27;;;7.27;;
3891;SDS011;1961;48.194;16.370;2023-07-16T10:22:17;43.67;;;6.80;;
3891;SDS011;1961;48.194;16.370;2023-07-16T10:24:43;44.07;;;6.53;;
3891;SDS011;1961;48.194;16.370;2023-07-16T10:27:09;41.67;;;6.70;;
3891;SDS011;1961;48.194;16.370;2023-07-16T10:29:38;41.73;;;6.80;;
3891;SDS011;1961;48.194;16.370;2023-07-16T10:32:05;44.30;;;7.00;;
3891;SDS011;1961;48.194;16.370;2023-07-16T10:34:34;42.27;;;6.50;;
3891;SDS011;1961;48.194;16.370;2023-07-16T10:37:01;43.00;;;6.80;;
3891;SDS011;1961;48.194;16.370;2023-07-16T10:39:28;42.60;;;6.67;;
3891;SDS011;1961;48.194;16.370;2023-07-16T10:41:56;44.57;;;7.20;;
3891;SDS011;1961;48.194;16.370;2023-07-16T10:44:22;41.70;;;6.40;;
3891;SDS011;1961;48.194;16.370;2023-07-16T10:46:49;42.20;;;6.70;;
3891;SDS011;1961;48.194;16.370;2023-07-16T10:49:26;43.73;;;6.67;;
3891;SDS011;1961;48.194;16.370;2023-07-16T10:51:52;42.63;;;7.30;;
3891;SDS011;1961;48.194;16.370;2023-07-16T10:54:19;44.60;;;7.60;;
3891;SDS011;1961;48.194;16.370;2023-07-16T10:56:45;43.60;;;8.30;;
3891;SDS011;1961;48.194;16.370;2023-07-16T10:59:13;43.37;;;7.10;;
3891;SDS011;1961;48.194;16.370;2023-07-16T11:01:39;42.63;;;6.80;;
3891;SDS011;1961;48.194;16.370;2023-07-16T11:04:07;41.77;;;6.87;;
3891;SDS011;1961;48.194;16.370;2023-07-16T11:06:33;42.00;;;6.57;;
3891;SDS011;1961;48.194;16.370;2023-07-16T11:09:09;42.10;;;7.20;;
3891;SDS011;1961;48.194;16.370;2023-07-16T11:11:35;42.63;;;7.20;;
3891;SDS011;1961;48.194;16.370;2023-07-16T11:14:05;41.87;;;7.07;;
3891;SDS011;1961;48.194;16.370;2023-07-16T11:16:37;44.30;;;6.90;;
3891;SDS011;1961;48.194;16.370;2023-07-16T11:19:04;42.93;;;7.03;;
3891;SDS011;1961;48.194;16.370;2023-07-16T11:21:33;42.00;;;6.60;;
3891;SDS011;1961;48.194;16.370;2023-07-16T11:24:20;41.83;;;6.90;;
3891;SDS011;1961;48.194;16.370;2023-07-16T11:26:53;44.17;;;7.53;;
3891;SDS011;1961;48.194;16.370;2023-07-16T11:29:22;45.20;;;7.27;;
3891;SDS011;1961;48.194;16.370;2023-07-16T11:31:49;43.30;;;8.10;;
3891;SDS011;1961;48.194;16.370;2023-07-16T11:34:16;42.37;;;6.50;;
3891;SDS011;1961;48.194;16.370;2023-07-16T11:36:43;43.37;;;7.57;;
3891;SDS011;1961;48.194;16.370;2023-07-16T11:39:12;43.60;;;6.70;;
3891;SDS011;1961;48.194;16.370;2023-07-16T11:41:39;41.57;;;6.47;;
3891;SDS011;1961;48.194;16.370;2023-07-16T11:44:06;44.07;;;7.23;;
3891;SDS011;1961;48.194;16.370;2023-07-16T11:46:34;43.60;;;6.80;;
3891;SDS011;1961;48.194;16.370;2023-07-16T11:49:02;44.80;;;6.90;;
3891;SDS011;1961;48.194;16.370;2023-07-16T11:51:29;41.80;;;6.47;;
3891;SDS011;1961;48.194;16.370;2023-07-16T11:53:55;42.80;;;7.10;;
3891;SDS011;1961;48.194;16.370;2023-07-16T11:56:22;43.17;;;7.20;;
3891;SDS011;1961;48.194;16.370;2023-07-16T11:58:49;42.70;;;6.70;;
3891;SDS011;1961;48.194;16.370;2023-07-16T12:01:15;41.57;;;6.60;;
3891;SDS011;1961;48.194;16.370;2023-07-16T12:03:41;42.80;;;7.00;;
3891;SDS011;1961;48.194;16.370;2023-07-16T12:06:08;41.87;;;6.47;;
3891;SDS011;1961;48.194;16.370;2023-07-16T12:08:34;41.40;;;6.13;;
3891;SDS011;1961;48.194;16.370;2023-07-16T12:11:00;42.70;;;6.70;;
3891;SDS011;1961;48.194;16.370;2023-07-16T12:13:26;43.40;;;7.40;;
3891;SDS011;1961;48.194;16.370;2023-07-16T12:15:53;46.50;;;8.10;;
3891;SDS011;1961;48.194;16.370;2023-07-16T12:18:19;43.07;;;7.07;;
3891;SDS011;1961;48.194;16.370;2023-07-16T12:20:45;42.30;;;7.07;;
3891;SDS011;1961;48.194;16.370;2023-07-16T12:23:11;43.90;;;6.90;;
3891;SDS011;1961;48.194;16.370;2023-07-16T12:25:37;43.30;;;7.70;;
3891;SDS011;1961;48.194;16.370;2023-07-16T12:28:04;42.47;;;7.23;;
3891;SDS011;1961;48.194;16.370;2023-07-16T12:30:30;42.20;;;6.93;;
3891;SDS011;1961;48.194;16.370;2023-07-16T12:32:56;45.67;;;8.07;;
3891;SDS011;1961;48.194;16.370;2023-07-16T12:35:22;42.67;;;6.70;;
3891;SDS011;1961;48.194;16.370;2023-07-16T12:37:48;41.53;;;6.27;;
3891;SDS011;1961;48.194;16.370;2023-07-16T12:40:15;41.70;;;6.10;;
3891;SDS011;1961;48.194;16.370;2023-07-16T12:42:42;42.00;;;6.40;;
3891;SDS011;1961;48.194;16.370;2023-07-16T12:45:09;43.73;;;6.63;;
3891;SDS011;1961;48.194;16.370;2023-07-16T12:47:35;42.17;;;6.60;;
3891;SDS011;1961;48.194;16.370;2023-07-16T12:50:03;41.80;;;6.80;;
3891;SDS011;1961;48.194;16.370;2023-07-16T12:52:29;42.40;;;6.30;;
3891;SDS011;1961;48.194;16.370;2023-07-16T12:54:56;43.17;;;6.27;;
3891;SDS011;1961;48.194;16.370;2023-07-16T12:57:22;42.87;;;6.53;;
3891;SDS011;1961;48.194;16.370;2023-07-16T12:59:48;42.07;;;6.50;;
3891;SDS011;1961;48.194;16.370;2023-07-16T13:02:14;43.10;;;6.63;;
3891;SDS011;1961;48.194;16.370;2023-07-16T13:04:41;41.70;;;6.60;;
3891;SDS011;1961;48.194;16.370;2023-07-16T13:07:08;42.67;;;6.73;;
3891;SDS011;1961;48.194;16.370;2023-07-16T13:09:34;41.67;;;6.50;;
3891;SDS011;1961;48.194;16.370;2023-07-16T13:12:00;44.57;;;7.33;;
3891;SDS011;1961;48.194;16.370;2023-07-16T13:14:26;41.73;;;6.53;;
3891;SDS011;1961;48.194;16.370;2023-07-16T13:16:53;42.00;;;6.50;;
3891;SDS011;1961;48.194;16.370;2023-07-16T13:19:20;42.47;;;6.60;;
3891;SDS011;1961;48.194;16.370;2023-07-16T13:21:46;41.70;;;6.50;;
3891;SDS011;1961;48.194;16.370;2023-07-16T13:24:13;42.87;;;6.60;;
3891;SDS011;1961;48.194;16.370;2023-07-16T13:26:39;42.40;;;6.33;;
3891;SDS011;1961;48.194;16.370;2023-07-16T13:29:06;43.27;;;6.77;;
3891;SDS011;1961;48.194;16.370;2023-07-16T13:31:32;42.10;;;6.33;;
3891;SDS011;1961;48.194;16.370;2023-07-16T13:33:59;41.20;;;6.27;;
3891;SDS011;1961;48.194;16.370;2023-07-16T13:36:25;41.47;;;6.40;;
3891;SDS011;1961;48.194;16.370;2023-07-16T13:38:52;43.40;;;7.23;;
3891;SDS011;1961;48.194;16.370;2023-07-16T13:41:18;42.27;;;6.57;;
3891;SDS011;1961;48.194;16.370;2023-07-16T13:43:44;40.90;;;5.90;;
3891;SDS011;1961;48.194;16.370;2023-07-16T13:46:11;42.33;;;6.47;;
3891;SDS011;1961;48.194;16.370;2023-07-16T13:48:38;42.60;;;6.90;;
3891;SDS011;1961;48.194;16.370;2023-07-16T13:51:04;42.03;;;6.20;;
3891;SDS011;1961;48.194;16.370;2023-07-16T13:53:31;42.90;;;6.20;;
3891;SDS011;1961;48.194;16.370;2023-07-16T13:55:57;43.40;;;6.00;;
3891;SDS011;1961;48.194;16.370;2023-07-16T13:58:24;44.60;;;6.70;;
3891;SDS011;1961;48.194;16.370;2023-07-16T14:00:51;41.17;;;5.80;;
3891;SDS011;1961;48.194;16.370;2023-07-16T14:03:18;42.80;;;6.30;;
3891;SDS011;1961;48.194;16.370;2023-07-16T14:05:44;42.00;;;5.93;;
3891;SDS011;1961;48.194;16.370;2023-07-16T14:08:11;42.53;;;6.73;;
3891;SDS011;1961;48.194;16.370;2023-07-16T14:10:37;42.37;;;6.20;;
3891;SDS011;1961;48.194;16.370;2023-07-16T14:13:03;42.70;;;6.67;;
3891;SDS011;1961;48.194;16.370;2023-07-16T14:15:30;41.90;;;6.50;;
3891;SDS011;1961;48.194;16.370;2023-07-16T14:17:56;41.20;;;6.13;;
3891;SDS011;1961;48.194;16.370;2023-07-16T14:20:22;41.20;;;5.93;;
3891;SDS011;1961;48.194;16.370;2023-07-16T14:22:48;41.40;;;5.70;;
3891;SDS011;1961;48.194;16.370;2023-07-16T14:25:15;42.70;;;6.37;;
3891;SDS011;1961;48.194;16.370;2023-07-16T14:27:43;41.50;;;6.07;;
3891;SDS011;1961;48.194;16.370;2023-07-16T14:30:10;41.40;;;5.80;;
3891;SDS011;1961;48.194;16.370;2023-07-16T14:32:37;41.60;;;5.80;;
3891;SDS011;1961;48.194;16.370;2023-07-16T14:35:03;41.93;;;6.00;;
3891;SDS011;1961;48.194;16.370;2023-07-16T14:37:30;41.77;;;6.10;;
3891;SDS011;1961;48.194;16.370;2023-07-16T14:39:57;41.60;;;5.70;;
3891;SDS011;1961;48.194;16.370;2023-07-16T14:42:23;44.97;;;6.20;;
3891;SDS011;1961;48.194;16.370;2023-07-16T14:44:50;41.73;;;6.07;;
3891;SDS011;1961;48.194;16.370;2023-07-16T14:47:16;41.60;;;6.47;;